createdAt,value
2018-01-07T00:00:55.839Z,21.08
2018-01-07T00:03:24.194Z,18.47
2018-01-07T00:05:53.098Z,21.60
2018-01-07T00:08:21.248Z,17.87
2018-01-07T00:10:49.377Z,15.10
2018-01-07T00:13:17.505Z,16.67
2018-01-07T00:15:45.651Z,15.10
2018-01-07T00:18:13.809Z,16.63
2018-01-07T00:20:42.743Z,15.30
2018-01-07T00:23:10.857Z,15.18
2018-01-07T00:25:39.007Z,14.73
2018-01-07T00:28:07.149Z,15.32
2018-01-07T00:30:35.272Z,14.02
2018-01-07T00:33:03.414Z,13.70
2018-01-07T00:35:31.569Z,14.02
2018-01-07T00:37:59.698Z,26.48
2018-01-07T00:40:28.602Z,44.42
2018-01-07T00:42:57.592Z,41.10
2018-01-07T00:45:26.477Z,43.00
2018-01-07T00:47:55.377Z,46.43
2018-01-07T00:50:24.279Z,43.90
2018-01-07T00:52:52.393Z,36.63
2018-01-07T00:55:20.607Z,31.15
2018-01-07T00:57:49.598Z,38.15
2018-01-07T01:00:18.519Z,30.08
2018-01-07T01:02:46.692Z,20.57
2018-01-07T01:05:15.554Z,22.30
2018-01-07T01:07:44.448Z,21.80
2018-01-07T01:10:13.365Z,17.25
2018-01-07T01:12:41.490Z,19.62
2018-01-07T01:15:09.607Z,15.77
2018-01-07T01:17:37.894Z,20.83
2018-01-07T01:20:06.010Z,16.42
2018-01-07T01:22:34.231Z,20.10
2018-01-07T01:25:02.401Z,16.48
2018-01-07T01:27:31.291Z,17.12
2018-01-07T01:29:59.403Z,19.62
2018-01-07T01:32:27.740Z,17.02
2018-01-07T01:34:56.625Z,12.75
2018-01-07T01:37:24.741Z,13.55
2018-01-07T01:39:52.871Z,15.52
2018-01-07T01:42:21.006Z,14.40
2018-01-07T01:44:49.893Z,13.73
2018-01-07T01:47:18.810Z,13.65
2018-01-07T01:49:46.952Z,11.23
2018-01-07T01:52:15.888Z,13.73
2018-01-07T01:54:43.993Z,14.48
2018-01-07T01:57:12.203Z,13.00
2018-01-07T01:59:41.228Z,15.52
2018-01-07T02:02:10.095Z,15.38
2018-01-07T02:04:38.209Z,12.55
2018-01-07T02:07:06.335Z,13.25
2018-01-07T02:09:35.352Z,15.43
2018-01-07T02:12:04.251Z,14.82
2018-01-07T02:14:32.358Z,14.13
2018-01-07T02:17:00.488Z,15.70
2018-01-07T02:19:28.615Z,14.50
2018-01-07T02:21:57.515Z,16.17
2018-01-07T02:24:26.542Z,16.10
2018-01-07T02:26:55.409Z,16.35
2018-01-07T02:29:23.545Z,28.00
2018-01-07T02:31:51.762Z,20.30
2018-01-07T02:34:20.629Z,25.30
2018-01-07T02:36:49.532Z,16.05
2018-01-07T02:39:18.425Z,16.90
2018-01-07T02:41:47.318Z,26.40
2018-01-07T02:44:15.450Z,25.70
2018-01-07T02:46:43.638Z,23.05
2018-01-07T02:49:12.618Z,23.23
2018-01-07T02:51:42.245Z,33.25
2018-01-07T02:54:11.138Z,36.90
2018-01-07T02:56:40.063Z,38.60
2018-01-07T02:59:08.172Z,52.45
2018-01-07T03:01:36.303Z,28.70
2018-01-07T03:04:04.478Z,18.27
2018-01-07T03:06:32.652Z,21.98
2018-01-07T03:09:01.539Z,28.80
2018-01-07T03:11:29.651Z,26.35
2018-01-07T03:13:57.784Z,34.45
2018-01-07T03:16:25.904Z,23.77
2018-01-07T03:18:54.045Z,22.60
2018-01-07T03:21:22.167Z,20.27
2018-01-07T03:23:51.060Z,35.70
2018-01-07T03:26:20.083Z,20.50
2018-01-07T03:28:48.948Z,31.65
2018-01-07T03:31:17.103Z,24.25
2018-01-07T03:33:45.216Z,23.23
2018-01-07T03:36:13.325Z,15.68
2018-01-07T03:38:41.531Z,27.55
2018-01-07T03:41:10.516Z,21.10
2018-01-07T03:43:39.435Z,31.50
2018-01-07T03:46:07.555Z,23.35
2018-01-07T03:48:35.774Z,19.98
2018-01-07T03:51:03.897Z,17.98
2018-01-07T03:53:32.036Z,20.45
2018-01-07T03:56:00.207Z,14.80
2018-01-07T03:58:29.078Z,14.15
2018-01-07T04:00:58.090Z,18.83
2018-01-07T04:03:27.044Z,11.40
2018-01-07T04:05:55.926Z,16.80
2018-01-07T04:08:24.111Z,12.13
2018-01-07T04:10:52.991Z,15.35
2018-01-07T04:13:22.021Z,15.70
2018-01-07T04:15:50.203Z,29.60
2018-01-07T04:18:19.090Z,17.90
2018-01-07T04:20:47.225Z,26.20
2018-01-07T04:23:16.153Z,17.70
2018-01-07T04:25:45.105Z,18.55
2018-01-07T04:28:13.985Z,16.02
2018-01-07T04:30:42.205Z,17.12
2018-01-07T04:33:11.104Z,12.77
2018-01-07T04:35:39.201Z,15.85
2018-01-07T04:38:07.442Z,14.32
2018-01-07T04:40:36.304Z,14.68
2018-01-07T04:43:04.461Z,22.08
2018-01-07T04:45:32.682Z,33.90
2018-01-07T04:48:00.782Z,13.30
2018-01-07T04:50:28.924Z,18.27
2018-01-07T04:52:57.097Z,17.37
2018-01-07T04:55:25.985Z,24.80
2018-01-07T04:57:54.109Z,23.87
2018-01-07T05:00:22.232Z,19.85
2018-01-07T05:02:50.350Z,16.60
2018-01-07T05:05:20.007Z,21.92
2018-01-07T05:07:48.975Z,15.95
2018-01-07T05:10:17.956Z,21.25
2018-01-07T05:12:46.856Z,32.58
2018-01-07T05:15:15.875Z,22.23
2018-01-07T05:17:44.739Z,19.27
2018-01-07T05:20:13.654Z,22.37
2018-01-07T05:22:41.829Z,41.10
2018-01-07T05:25:10.718Z,16.92
2018-01-07T05:27:39.608Z,20.95
2018-01-07T05:30:07.781Z,15.00
2018-01-07T05:32:36.671Z,32.67
2018-01-07T05:35:04.802Z,14.65
2018-01-07T05:37:32.982Z,28.67
2018-01-07T05:40:01.869Z,40.42
2018-01-07T05:42:30.760Z,24.50
2018-01-07T05:44:59.688Z,15.30
2018-01-07T05:47:28.575Z,14.10
2018-01-07T05:49:57.476Z,17.23
2018-01-07T05:52:25.638Z,26.90
2018-01-07T05:54:54.515Z,14.70
2018-01-07T05:57:23.411Z,14.80
2018-01-07T05:59:51.518Z,12.30
2018-01-07T06:02:19.662Z,14.75
2018-01-07T06:04:47.836Z,13.25
2018-01-07T06:07:16.728Z,12.02
2018-01-07T06:09:44.844Z,11.80
2018-01-07T06:12:14.524Z,17.83
2018-01-07T06:14:42.682Z,14.77
2018-01-07T06:17:11.537Z,8.50
2018-01-07T06:19:40.421Z,13.75
2018-01-07T06:22:09.346Z,12.27
2018-01-07T06:24:38.342Z,9.38
2018-01-07T06:27:07.277Z,12.02
2018-01-07T06:29:35.334Z,7.12
2018-01-07T06:32:03.537Z,7.55
2018-01-07T06:34:32.411Z,7.65
2018-01-07T06:37:00.540Z,13.27
2018-01-07T06:39:28.655Z,11.38
2018-01-07T06:41:56.791Z,9.95
2018-01-07T06:44:24.911Z,8.45
2018-01-07T06:46:53.034Z,8.65
2018-01-07T06:49:21.195Z,10.23
2018-01-07T06:51:50.057Z,6.75
2018-01-07T06:54:18.953Z,9.50
2018-01-07T06:56:47.868Z,13.85
2018-01-07T06:59:16.755Z,7.93
2018-01-07T07:01:44.865Z,7.83
2018-01-07T07:04:12.992Z,8.17
2018-01-07T07:06:41.098Z,7.80
2018-01-07T07:09:09.346Z,7.40
2018-01-07T07:11:38.342Z,9.10
2018-01-07T07:14:07.328Z,14.43
2018-01-07T07:16:36.192Z,13.13
2018-01-07T07:19:05.109Z,14.43
2018-01-07T07:21:33.285Z,10.13
2018-01-07T07:24:02.183Z,26.40
2018-01-07T07:26:30.346Z,9.63
2018-01-07T07:28:59.223Z,9.98
2018-01-07T07:31:27.337Z,9.13
2018-01-07T07:33:55.704Z,13.70
2018-01-07T07:36:23.865Z,12.63
2018-01-07T07:38:51.972Z,27.23
2018-01-07T07:41:20.124Z,11.27
2018-01-07T07:43:48.275Z,14.27
2018-01-07T07:46:17.166Z,21.63
2018-01-07T07:48:46.056Z,10.20
2018-01-07T07:51:14.227Z,18.53
2018-01-07T07:53:43.094Z,17.02
2018-01-07T07:56:11.987Z,12.27
2018-01-07T07:58:40.110Z,12.95
2018-01-07T08:01:08.354Z,12.63
2018-01-07T08:03:37.273Z,10.80
2018-01-07T08:06:05.519Z,19.77
2018-01-07T08:08:34.382Z,20.08
2018-01-07T08:11:03.270Z,18.48
2018-01-07T08:13:32.166Z,13.10
2018-01-07T08:16:01.058Z,19.98
2018-01-07T08:18:29.195Z,19.07
2018-01-07T08:20:57.424Z,17.75
2018-01-07T08:23:26.307Z,19.95
2018-01-07T08:25:54.443Z,19.40
2018-01-07T08:28:23.326Z,16.35
2018-01-07T08:30:51.551Z,19.50
2018-01-07T08:33:20.438Z,16.80
2018-01-07T08:35:48.579Z,15.32
2018-01-07T08:38:17.504Z,16.42
2018-01-07T08:40:45.632Z,16.87
2018-01-07T08:43:14.564Z,16.10
2018-01-07T08:45:43.453Z,16.40
2018-01-07T08:48:12.345Z,19.20
2018-01-07T08:50:40.519Z,22.70
2018-01-07T08:53:09.571Z,17.33
2018-01-07T08:55:38.470Z,17.48
2018-01-07T08:58:07.389Z,17.52
2018-01-07T09:00:35.520Z,14.10
2018-01-07T09:03:03.683Z,20.33
2018-01-07T09:05:31.916Z,16.30
2018-01-07T09:08:00.809Z,19.55
2018-01-07T09:10:28.987Z,15.75
2018-01-07T09:12:57.879Z,15.18
2018-01-07T09:15:26.049Z,17.95
2018-01-07T09:17:55.044Z,17.73
2018-01-07T09:20:23.164Z,17.70
2018-01-07T09:22:51.310Z,16.83
2018-01-07T09:25:19.510Z,15.85
2018-01-07T09:27:47.635Z,20.45
2018-01-07T09:30:15.810Z,15.77
2018-01-07T09:32:43.948Z,15.48
2018-01-07T09:35:12.868Z,14.30
2018-01-07T09:37:41.054Z,14.15
2018-01-07T09:40:09.387Z,17.30
2018-01-07T09:42:37.567Z,13.25
2018-01-07T09:45:06.581Z,13.77
2018-01-07T09:47:35.467Z,15.50
2018-01-07T09:50:03.652Z,14.90
2018-01-07T09:52:31.814Z,13.50
2018-01-07T09:55:00.695Z,12.80
2018-01-07T09:57:29.238Z,12.77
2018-01-07T09:59:57.353Z,13.52
2018-01-07T10:02:25.589Z,11.38
2018-01-07T10:04:53.717Z,16.33
2018-01-07T10:07:21.969Z,13.40
2018-01-07T10:09:50.863Z,16.10
2018-01-07T10:12:19.045Z,13.23
2018-01-07T10:14:47.163Z,14.73
2018-01-07T10:17:15.311Z,15.68
2018-01-07T10:19:43.458Z,14.77
2018-01-07T10:22:11.737Z,14.50
2018-01-07T10:24:39.857Z,15.75
2018-01-07T10:27:08.083Z,13.95
2018-01-07T10:29:36.262Z,12.77
2018-01-07T10:32:04.386Z,12.75
2018-01-07T10:34:33.283Z,13.20
2018-01-07T10:37:01.416Z,12.98
2018-01-07T10:39:29.564Z,10.88
2018-01-07T10:41:58.535Z,11.98
2018-01-07T10:44:27.448Z,12.10
2018-01-07T10:46:55.734Z,12.35
2018-01-07T10:49:23.849Z,13.53
2018-01-07T10:51:52.781Z,14.27
2018-01-07T10:54:20.894Z,14.98
2018-01-07T10:56:49.076Z,14.77
2018-01-07T10:59:17.303Z,16.23
2018-01-07T11:01:51.886Z,16.60
2018-01-07T11:04:20.067Z,16.12
2018-01-07T11:06:48.994Z,16.20
2018-01-07T11:09:17.210Z,17.10
2018-01-07T11:11:45.468Z,17.05
2018-01-07T11:14:13.614Z,17.65
2018-01-07T11:16:42.486Z,17.15
2018-01-07T11:19:10.651Z,17.73
2018-01-07T11:21:39.671Z,14.82
2018-01-07T11:24:07.911Z,17.12
2018-01-07T11:26:37.654Z,17.05
2018-01-07T11:29:06.530Z,18.55
2018-01-07T11:31:34.717Z,16.15
2018-01-07T11:34:03.591Z,16.90
2018-01-07T11:36:31.778Z,18.85
2018-01-07T11:38:59.897Z,13.43
2018-01-07T11:41:28.125Z,13.67
2018-01-07T11:43:56.270Z,18.87
2018-01-07T11:46:25.169Z,16.45
2018-01-07T11:54:31.493Z,16.65
2018-01-07T11:56:59.660Z,17.92
2018-01-07T11:59:27.829Z,16.30
2018-01-07T12:01:56.930Z,17.57
2018-01-07T12:04:25.051Z,20.70
2018-01-07T12:06:53.216Z,18.02
2018-01-07T12:09:21.341Z,19.65
2018-01-07T12:11:49.487Z,16.45
2018-01-07T12:14:18.404Z,20.42
2018-01-07T12:16:47.398Z,14.57
2018-01-07T12:19:15.507Z,15.43
2018-01-07T12:21:43.750Z,15.75
2018-01-07T12:24:11.868Z,19.15
2018-01-07T12:26:40.059Z,17.27
2018-01-07T12:29:08.983Z,17.92
2018-01-07T12:31:37.156Z,15.82
2018-01-07T12:34:05.308Z,14.95
2018-01-07T12:36:34.318Z,13.13
2018-01-07T12:39:03.210Z,15.35
2018-01-07T12:41:31.360Z,13.52
2018-01-07T12:44:00.261Z,13.20
2018-01-07T12:46:28.409Z,16.20
2018-01-07T12:48:57.347Z,12.00
2018-01-07T12:51:25.480Z,15.40
2018-01-07T12:53:54.395Z,13.40
2018-01-07T12:56:22.571Z,15.18
2018-01-07T12:58:51.474Z,15.27
2018-01-07T13:01:19.635Z,15.10
2018-01-07T13:03:47.763Z,16.63
2018-01-07T13:06:16.060Z,14.13
2018-01-07T13:08:44.999Z,14.13
2018-01-07T13:11:13.199Z,16.77
2018-01-07T13:13:41.315Z,16.87
2018-01-07T13:16:09.909Z,15.88
2018-01-07T13:18:38.045Z,14.90
2018-01-07T13:21:06.937Z,14.68
2018-01-07T13:23:36.830Z,16.02
2018-01-07T13:26:04.976Z,15.00
2018-01-07T13:28:33.229Z,13.93
2018-01-07T13:31:02.083Z,14.63
2018-01-07T13:33:31.093Z,17.00
2018-01-07T13:36:00.003Z,18.75
2018-01-07T13:38:28.120Z,16.42
2018-01-07T13:40:57.782Z,16.27
2018-01-07T13:43:25.943Z,18.42
2018-01-07T13:45:54.100Z,15.13
2018-01-07T13:48:23.013Z,16.03
2018-01-07T13:50:51.186Z,14.73
2018-01-07T13:53:19.353Z,15.32
2018-01-07T13:55:47.495Z,11.57
2018-01-07T13:58:16.601Z,13.50
2018-01-07T14:00:45.517Z,14.43
2018-01-07T14:03:14.402Z,12.57
2018-01-07T14:05:42.580Z,10.48
2018-01-07T14:08:11.482Z,14.35
2018-01-07T14:10:39.640Z,11.55
2018-01-07T14:13:07.764Z,11.95
2018-01-07T14:15:35.889Z,11.20
2018-01-07T14:18:04.107Z,14.87
2018-01-07T14:20:32.246Z,15.07
2018-01-07T14:23:00.390Z,12.73
2018-01-07T14:25:28.548Z,14.77
2018-01-07T14:27:57.464Z,13.95
2018-01-07T14:30:26.457Z,13.13
2018-01-07T14:32:55.321Z,12.10
2018-01-07T14:35:23.517Z,12.82
2018-01-07T14:37:52.414Z,11.73
2018-01-07T14:40:20.588Z,11.52
2018-01-07T14:42:48.700Z,11.88
2018-01-07T14:45:16.820Z,12.77
2018-01-07T14:47:45.005Z,11.43
2018-01-07T14:50:13.140Z,10.05
2018-01-07T14:52:42.054Z,11.00
2018-01-07T14:55:10.180Z,11.00
2018-01-07T14:57:38.312Z,11.25
2018-01-07T15:00:06.457Z,14.30
2018-01-07T15:02:34.592Z,11.37
2018-01-07T15:05:02.816Z,13.70
2018-01-07T15:07:31.766Z,16.95
2018-01-07T15:09:59.925Z,10.80
2018-01-07T15:12:28.066Z,13.40
2018-01-07T15:14:57.060Z,12.35
2018-01-07T15:17:25.224Z,9.75
2018-01-07T15:19:53.379Z,10.70
2018-01-07T15:22:22.291Z,9.63
2018-01-07T15:24:50.472Z,10.90
2018-01-07T15:27:18.640Z,11.57
2018-01-07T15:29:46.769Z,15.85
2018-01-07T15:32:14.981Z,16.90
2018-01-07T15:34:43.187Z,13.57
2018-01-07T15:37:11.431Z,14.40
2018-01-07T15:39:39.605Z,13.75
2018-01-07T15:42:08.556Z,15.13
2018-01-07T15:44:36.677Z,15.63
2018-01-07T15:47:04.804Z,18.20
2018-01-07T15:49:32.932Z,16.30
2018-01-07T15:52:01.186Z,14.95
2018-01-07T15:54:30.292Z,15.35
2018-01-07T15:56:58.472Z,13.13
2018-01-07T15:59:26.595Z,12.13
2018-01-07T16:01:54.747Z,11.80
2018-01-07T16:04:22.901Z,11.97
2018-01-07T16:06:51.041Z,10.68
2018-01-07T16:09:19.986Z,10.23
2018-01-07T16:11:48.311Z,11.02
2018-01-07T16:14:17.200Z,13.80
2018-01-07T16:16:45.438Z,13.73
2018-01-07T16:19:14.344Z,13.88
2018-01-07T16:21:43.264Z,14.68
2018-01-07T16:24:11.377Z,16.20
2018-01-07T16:26:39.544Z,16.92
2018-01-07T16:29:07.677Z,16.12
2018-01-07T16:31:35.805Z,17.85
2018-01-07T16:34:04.742Z,13.85
2018-01-07T16:36:32.920Z,16.70
2018-01-07T16:39:01.060Z,15.98
2018-01-07T16:41:29.973Z,15.57
2018-01-07T16:43:58.152Z,16.45
2018-01-07T16:46:27.048Z,15.68
2018-01-07T16:48:55.186Z,18.10
2018-01-07T16:51:24.209Z,20.02
2018-01-07T16:53:52.324Z,18.30
2018-01-07T16:56:20.515Z,18.95
2018-01-07T16:58:48.625Z,24.10
2018-01-07T17:01:16.795Z,18.80
2018-01-07T17:03:44.905Z,18.20
2018-01-07T17:06:13.354Z,19.92
2018-01-07T17:08:41.480Z,20.00
2018-01-07T17:11:10.389Z,20.05
2018-01-07T17:13:39.301Z,22.00
2018-01-07T17:16:07.996Z,19.95
2018-01-07T17:18:37.389Z,18.40
2018-01-07T17:21:05.570Z,17.40
2018-01-07T17:23:33.773Z,19.35
2018-01-07T17:26:01.918Z,18.02
2018-01-07T17:28:30.199Z,22.92
2018-01-07T17:30:58.819Z,31.62
2018-01-07T17:33:27.038Z,26.37
2018-01-07T17:35:55.970Z,27.65
2018-01-07T17:38:24.165Z,23.25
2018-01-07T17:40:52.376Z,22.73
2018-01-07T17:43:20.541Z,24.48
2018-01-07T17:45:49.418Z,21.75
2018-01-07T17:48:18.438Z,23.27
2018-01-07T17:50:47.340Z,21.45
2018-01-07T17:53:15.472Z,24.52
2018-01-07T17:55:44.396Z,26.58
2018-01-07T17:58:12.510Z,25.35
2018-01-07T18:00:40.655Z,25.30
2018-01-07T18:03:08.832Z,23.52
2018-01-07T18:05:36.980Z,27.08
2018-01-07T18:08:05.217Z,23.65
2018-01-07T18:10:33.536Z,24.40
2018-01-07T18:13:01.705Z,23.45
2018-01-07T18:15:30.703Z,26.98
2018-01-07T18:17:58.870Z,22.50
2018-01-07T18:20:27.767Z,32.38
2018-01-07T18:22:55.899Z,28.27
2018-01-07T18:25:24.800Z,27.50
2018-01-07T18:30:44.835Z,26.87
2018-01-07T18:33:12.983Z,26.57
2018-01-07T18:35:41.274Z,28.00
2018-01-07T18:38:09.806Z,31.25
2018-01-07T18:40:37.944Z,29.95
2018-01-07T18:43:06.083Z,32.60
2018-01-07T18:45:35.096Z,24.30
2018-01-07T18:48:03.270Z,34.27
2018-01-07T18:50:31.399Z,30.08
2018-01-07T18:53:01.271Z,29.30
2018-01-07T18:55:29.384Z,27.95
2018-01-07T18:57:57.563Z,26.65
2018-01-07T19:00:26.477Z,27.62
2018-01-07T19:02:54.620Z,28.27
2018-01-07T19:05:23.653Z,27.65
2018-01-07T19:07:51.764Z,30.48
2018-01-07T19:10:22.261Z,33.70
2018-01-07T19:12:50.407Z,26.85
2018-01-07T19:15:19.518Z,28.50
2018-01-07T19:17:47.679Z,26.13
2018-01-07T19:20:15.816Z,26.65
2018-01-07T19:22:44.042Z,30.12
2018-01-07T19:25:12.531Z,25.88
2018-01-07T19:27:40.720Z,25.08
2018-01-07T19:30:08.966Z,29.40
2018-01-07T19:32:37.958Z,26.70
2018-01-07T19:35:06.133Z,27.37
2018-01-07T19:37:34.306Z,28.48
2018-01-07T19:40:02.533Z,32.20
2018-01-07T19:42:32.174Z,29.15
2018-01-07T19:45:00.418Z,33.90
2018-01-07T19:47:28.661Z,28.15
2018-01-07T19:49:56.915Z,23.62
2018-01-07T19:52:25.083Z,29.92
2018-01-07T19:54:53.247Z,28.73
2018-01-07T19:57:21.426Z,28.85
2018-01-07T19:59:49.570Z,28.42
2018-01-07T20:02:19.779Z,28.73
2018-01-07T20:04:48.306Z,26.08
2018-01-07T20:07:16.456Z,25.33
2018-01-07T20:09:45.385Z,23.12
2018-01-07T20:12:13.571Z,25.30
2018-01-07T20:14:41.745Z,31.60
2018-01-07T20:17:11.399Z,32.70
2018-01-07T20:19:40.428Z,28.05
2018-01-07T20:22:11.061Z,26.35
2018-01-07T20:24:39.226Z,28.75
2018-01-07T20:27:07.395Z,32.20
2018-01-07T20:29:35.564Z,29.17
2018-01-07T20:32:03.699Z,26.60
2018-01-07T20:34:31.868Z,28.67
2018-01-07T20:37:01.521Z,30.90
2018-01-07T20:39:34.404Z,28.25
2018-01-07T20:42:03.610Z,30.80
2018-01-07T20:44:31.927Z,28.95
2018-01-07T20:47:00.063Z,29.60
2018-01-07T20:49:28.198Z,27.47
2018-01-07T20:51:56.527Z,27.17
2018-01-07T20:54:25.512Z,30.80
2018-01-07T20:56:53.674Z,27.85
2018-01-07T20:59:21.826Z,25.15
2018-01-07T21:01:51.464Z,26.47
2018-01-07T21:04:19.828Z,29.67
2018-01-07T21:06:52.920Z,28.08
2018-01-07T21:09:22.872Z,28.33
2018-01-07T21:11:52.848Z,26.52
2018-01-07T21:14:20.966Z,32.58
2018-01-07T21:16:50.578Z,29.75
2018-01-07T21:19:18.792Z,30.80
2018-01-07T21:21:47.881Z,30.02
2018-01-07T21:24:16.753Z,34.40
2018-01-07T21:26:45.152Z,37.85
2018-01-07T21:29:13.330Z,30.50
2018-01-07T21:31:42.008Z,31.70
2018-01-07T21:34:11.479Z,27.83
2018-01-07T21:36:40.423Z,32.03
2018-01-07T21:39:08.578Z,29.05
2018-01-07T21:41:36.721Z,27.67
2018-01-07T21:44:05.642Z,31.48
2018-01-07T21:46:33.811Z,30.20
2018-01-07T21:49:02.803Z,34.70
2018-01-07T21:51:31.711Z,31.33
2018-01-07T21:53:59.973Z,31.50
2018-01-07T21:56:28.174Z,25.85
2018-01-07T21:58:56.321Z,27.60
2018-01-07T22:01:36.341Z,31.30
2018-01-07T22:04:05.360Z,32.30
2018-01-07T22:06:45.379Z,28.15
2018-01-07T22:09:14.405Z,30.65
2018-01-07T22:11:43.463Z,35.25
2018-01-07T22:14:12.428Z,29.87
2018-01-07T22:16:40.665Z,27.02
2018-01-07T22:19:08.834Z,38.37
2018-01-07T22:21:37.007Z,36.83
2018-01-07T22:24:05.126Z,37.17
2018-01-07T22:26:33.754Z,29.95
2018-01-07T22:29:02.311Z,28.98
2018-01-07T22:31:31.440Z,26.50
2018-01-07T22:33:59.556Z,28.47
2018-01-07T22:36:27.720Z,28.00
2018-01-07T22:38:55.856Z,34.50
2018-01-07T22:41:24.082Z,31.30
2018-01-07T22:43:52.623Z,30.95
2018-01-07T22:46:20.781Z,27.98
2018-01-07T22:48:48.961Z,32.57
2018-01-07T22:51:17.059Z,30.70
2018-01-07T22:53:45.191Z,29.95
2018-01-07T22:56:13.328Z,31.15
2018-01-07T22:58:41.549Z,29.80
2018-01-07T23:01:10.440Z,27.45
2018-01-07T23:03:39.570Z,30.00
2018-01-07T23:06:08.015Z,32.65
2018-01-07T23:08:36.107Z,24.52
2018-01-07T23:11:04.263Z,31.60
2018-01-07T23:13:32.392Z,34.35
2018-01-07T23:16:01.318Z,28.25
2018-01-07T23:18:30.214Z,30.20
2018-01-07T23:20:58.504Z,29.58
2018-01-07T23:23:26.629Z,28.48
2018-01-07T23:25:55.037Z,30.58
2018-01-07T23:28:23.208Z,28.55
2018-01-07T23:30:52.203Z,25.75
2018-01-07T23:33:21.171Z,29.60
2018-01-07T23:35:50.084Z,28.35
2018-01-07T23:38:18.973Z,28.42
2018-01-07T23:40:47.147Z,31.52
2018-01-07T23:43:16.065Z,29.50
2018-01-07T23:45:44.411Z,28.70
2018-01-07T23:48:13.304Z,32.20
2018-01-07T23:50:41.650Z,31.10
2018-01-07T23:53:10.557Z,31.15
2018-01-07T23:55:39.579Z,27.77
2018-01-07T23:58:07.741Z,29.33
